Time,TemperatureF,DewpointF,PressureIn,WindDirection,WindDirectionDegrees,WindSpeedMPH,WindSpeedGustMPH,Humidity,HourlyPrecipIn,Conditions,Clouds,dailyrainin,SoftwareType,DateUTC
2013-07-10 00:10:00,71.4,70.8,29.99,East,90,0.0,-999.0,98,-99.99,,,0.00,Acu-Link.com,2013-07-10 04:10:00,
2013-07-10 00:25:00,71.4,70.8,29.98,ENE,67,0.0,-999.0,98,-99.99,,,0.00,Acu-Link.com,2013-07-10 04:25:00,
2013-07-10 00:40:00,71.1,70.5,29.97,NE,45,1.7,-999.0,98,-99.99,,,0.00,Acu-Link.com,2013-07-10 04:40:00,
2013-07-10 00:55:00,71.1,70.5,29.97,SW,225,0.0,-999.0,98,-99.99,,,0.00,Acu-Link.com,2013-07-10 04:55:00,
2013-07-10 01:10:00,70.9,70.3,29.96,ENE,67,0.0,-999.0,98,-99.99,,,0.00,Acu-Link.com,2013-07-10 05:10:00,
2013-07-10 01:25:00,70.9,70.3,29.97,NW,315,0.0,-999.0,98,-99.99,,,0.00,Acu-Link.com,2013-07-10 05:25:00,
2013-07-10 01:40:00,70.7,70.1,29.96,SW,225,0.0,-999.0,98,-99.99,,,0.00,Acu-Link.com,2013-07-10 05:40:00,
2013-07-10 01:55:00,70.7,70.1,29.95,ENE,67,0.0,-999.0,98,-99.99,,,0.00,Acu-Link.com,2013-07-10 05:55:00,
2013-07-10 02:11:00,70.5,69.9,29.95,NNE,22,1.1,-999.0,98,-99.99,,,0.00,Acu-Link.com,2013-07-10 06:11:00,
2013-07-10 02:26:00,70.3,69.7,29.95,NE,45,0.0,-999.0,98,-99.99,,,0.00,Acu-Link.com,2013-07-10 06:26:00,
2013-07-10 02:41:00,70.3,69.7,29.95,SE,135,0.0,-999.0,98,-99.99,,,0.00,Acu-Link.com,2013-07-10 06:41:00,
2013-07-10 02:56:00,70.2,69.6,29.95,SW,225,0.0,-999.0,98,-99.99,,,0.00,Acu-Link.com,2013-07-10 06:56:00,
2013-07-10 03:11:00,69.8,69.2,29.93,East,90,0.0,-999.0,98,-99.99,,,0.00,Acu-Link.com,2013-07-10 07:11:00,
2013-07-10 03:26:00,69.8,69.2,29.94,South,180,1.1,-999.0,98,-99.99,,,0.00,Acu-Link.com,2013-07-10 07:26:00,
2013-07-10 03:41:00,69.6,69.0,29.93,SSW,202,1.7,-999.0,98,-99.99,,,0.00,Acu-Link.com,2013-07-10 07:41:00,
2013-07-10 03:57:00,69.6,69.0,29.93,NNW,337,0.0,-999.0,98,-99.99,,,0.00,Acu-Link.com,2013-07-10 07:57:00,
2013-07-10 04:12:00,69.3,68.7,29.93,NE,45,0.0,-999.0,98,-99.99,,,0.00,Acu-Link.com,2013-07-10 08:12:00,
2013-07-10 04:27:00,69.3,68.7,29.93,NE,45,0.0,-999.0,98,-99.99,,,0.00,Acu-Link.com,2013-07-10 08:27:00,
2013-07-10 04:42:00,69.1,68.5,29.92,NE,45,0.0,-999.0,98,-99.99,,,0.00,Acu-Link.com,2013-07-10 08:42:00,
2013-07-10 04:57:00,69.1,68.5,29.92,South,180,2.2,-999.0,98,-99.99,,,0.00,Acu-Link.com,2013-07-10 08:57:00,
2013-07-10 05:12:00,69.1,68.5,29.92,ENE,67,0.0,-999.0,98,-99.99,,,0.00,Acu-Link.com,2013-07-10 09:12:00,
2013-07-10 05:27:00,69.3,68.7,29.93,WSW,247,0.0,-999.0,98,-99.99,,,0.00,Acu-Link.com,2013-07-10 09:27:00,
2013-07-10 05:42:00,69.3,68.7,29.93,NE,45,0.0,-999.0,98,-99.99,,,0.00,Acu-Link.com,2013-07-10 09:42:00,
2013-07-10 05:57:00,69.3,68.7,29.92,NNE,22,0.0,-999.0,98,-99.99,,,0.00,Acu-Link.com,2013-07-10 09:57:00,
2013-07-10 06:13:00,69.4,68.8,29.93,SE,135,0.0,-999.0,98,-99.99,,,0.00,Acu-Link.com,2013-07-10 10:13:00,
2013-07-10 06:28:00,69.8,69.2,29.93,South,180,0.0,-999.0,98,-99.99,,,0.00,Acu-Link.com,2013-07-10 10:28:00,
2013-07-10 06:43:00,70.0,69.4,29.93,SSE,157,0.0,-999.0,98,-99.99,,,0.00,Acu-Link.com,2013-07-10 10:43:00,
2013-07-10 06:58:00,70.2,69.6,29.93,NW,315,0.0,-999.0,98,-99.99,,,0.00,Acu-Link.com,2013-07-10 10:58:00,
2013-07-10 07:13:00,70.2,69.6,29.93,South,180,1.7,-999.0,98,-99.99,,,0.00,Acu-Link.com,2013-07-10 11:13:00,
2013-07-10 07:28:00,70.5,69.9,29.92,South,180,0.0,-999.0,98,-99.99,,,0.00,Acu-Link.com,2013-07-10 11:28:00,
2013-07-10 07:43:00,70.3,69.7,29.92,SSE,157,0.0,-999.0,98,-99.99,,,0.00,Acu-Link.com,2013-07-10 11:43:00,
2013-07-10 07:58:00,70.7,70.1,29.92,NE,45,1.7,-999.0,98,-99.99,,,0.00,Acu-Link.com,2013-07-10 11:58:00,
2013-07-10 08:13:00,71.2,70.6,29.92,SSW,202,1.1,-999.0,98,-99.99,,,0.00,Acu-Link.com,2013-07-10 12:13:00,
2013-07-10 08:29:00,72.3,71.7,29.91,ENE,67,0.0,-999.0,98,-99.99,,,0.00,Acu-Link.com,2013-07-10 12:29:00,
2013-07-10 08:44:00,72.7,72.1,29.92,ESE,112,1.1,-999.0,98,-99.99,,,0.00,Acu-Link.com,2013-07-10 12:44:00,
2013-07-10 08:59:00,74.1,73.5,29.91,SSW,202,0.0,-999.0,98,-99.99,,,0.00,Acu-Link.com,2013-07-10 12:59:00,
2013-07-10 09:14:00,76.3,75.7,29.91,SE,135,2.2,-999.0,98,-99.99,,,0.00,Acu-Link.com,2013-07-10 13:14:00,
2013-07-10 09:29:00,78.8,76.3,29.90,SSE,157,0.0,-999.0,92,-99.99,,,0.00,Acu-Link.com,2013-07-10 13:29:00,
2013-07-10 09:44:00,80.8,76.6,29.89,NNE,22,1.1,-999.0,87,-99.99,,,0.00,Acu-Link.com,2013-07-10 13:44:00,
2013-07-10 09:59:00,82.8,77.1,29.88,South,180,1.7,-999.0,83,-99.99,,,0.00,Acu-Link.com,2013-07-10 13:59:00,
2013-07-10 10:15:00,81.3,77.7,29.88,South,180,0.0,-999.0,89,-99.99,,,0.00,Acu-Link.com,2013-07-10 14:15:00,
2013-07-10 10:30:00,81.0,76.8,29.88,SE,135,1.7,-999.0,87,-99.99,,,0.00,Acu-Link.com,2013-07-10 14:30:00,
2013-07-10 10:45:00,82.2,77.2,29.87,South,180,2.2,-999.0,85,-99.99,,,0.00,Acu-Link.com,2013-07-10 14:45:00,
2013-07-10 11:00:00,83.5,77.8,29.87,SSE,157,1.1,-999.0,83,-99.99,,,0.00,Acu-Link.com,2013-07-10 15:00:00,
2013-07-10 11:15:00,81.0,77.1,29.86,SSW,202,1.7,-999.0,88,-99.99,,,0.00,Acu-Link.com,2013-07-10 15:15:00,
2013-07-10 11:30:00,82.4,77.8,29.86,South,180,0.0,-999.0,86,-99.99,,,0.00,Acu-Link.com,2013-07-10 15:30:00,
2013-07-10 11:45:00,83.7,78.3,29.85,South,180,1.7,-999.0,84,-99.99,,,0.00,Acu-Link.com,2013-07-10 15:45:00,
2013-07-10 12:00:00,82.6,77.3,29.85,SSE,157,1.7,-999.0,84,-99.99,,,0.00,Acu-Link.com,2013-07-10 16:00:00,
2013-07-10 12:15:00,84.7,78.6,29.84,ENE,67,3.7,-999.0,82,-99.99,,,0.00,Acu-Link.com,2013-07-10 16:15:00,
2013-07-10 12:31:00,84.7,77.8,29.84,SW,225,2.2,-999.0,80,-99.99,,,0.00,Acu-Link.com,2013-07-10 16:31:00,
2013-07-10 12:46:00,84.6,78.8,29.84,South,180,0.0,-999.0,83,-99.99,,,0.00,Acu-Link.com,2013-07-10 16:46:00,
2013-07-10 13:01:00,84.4,79.4,29.83,NNW,337,3.2,-999.0,85,-99.99,,,0.00,Acu-Link.com,2013-07-10 17:01:00,
2013-07-10 13:16:00,83.7,78.0,29.82,West,270,3.7,-999.0,83,-99.99,,,0.00,Acu-Link.com,2013-07-10 17:16:00,
2013-07-10 13:31:00,84.4,78.7,29.81,South,180,2.2,-999.0,83,-99.99,,,0.00,Acu-Link.com,2013-07-10 17:31:00,
2013-07-10 13:46:00,84.4,78.7,29.80,SSW,202,1.1,-999.0,83,-99.99,,,0.00,Acu-Link.com,2013-07-10 17:46:00,
2013-07-10 14:01:00,83.7,78.3,29.80,WSW,247,1.1,-999.0,84,-99.99,,,0.00,Acu-Link.com,2013-07-10 18:01:00,
2013-07-10 14:16:00,84.6,78.5,29.79,SW,225,2.2,-999.0,82,-99.99,,,0.00,Acu-Link.com,2013-07-10 18:16:00,
2013-07-10 14:31:00,83.8,78.1,29.79,SW,225,1.7,-999.0,83,-99.99,,,0.00,Acu-Link.com,2013-07-10 18:31:00,
2013-07-10 14:47:00,84.0,77.5,29.79,SE,135,1.1,-999.0,81,-99.99,,,0.00,Acu-Link.com,2013-07-10 18:47:00,
2013-07-10 15:02:00,82.9,77.6,29.78,SSE,157,1.7,-999.0,84,-99.99,,,0.00,Acu-Link.com,2013-07-10 19:02:00,
2013-07-10 15:17:00,82.4,77.8,29.78,NW,315,1.1,-999.0,86,-99.99,,,0.00,Acu-Link.com,2013-07-10 19:17:00,
2013-07-10 15:32:00,82.9,79.0,29.76,SE,135,1.7,-999.0,88,-99.99,,,0.00,Acu-Link.com,2013-07-10 19:32:00,
2013-07-10 15:47:00,82.8,78.5,29.76,SW,225,0.0,-999.0,87,-99.99,,,0.00,Acu-Link.com,2013-07-10 19:47:00,
2013-07-10 16:02:00,81.3,78.1,29.76,SW,225,0.0,-999.0,90,-99.99,,,0.00,Acu-Link.com,2013-07-10 20:02:00,
2013-07-10 16:17:00,80.1,77.6,29.76,SSW,202,0.0,-999.0,92,-99.99,,,0.00,Acu-Link.com,2013-07-10 20:17:00,
2013-07-10 16:32:00,80.2,77.7,29.75,SSW,202,0.0,-999.0,92,-99.99,,,0.00,Acu-Link.com,2013-07-10 20:32:00,
2013-07-10 16:47:00,79.9,77.4,29.74,SSE,157,0.0,-999.0,92,-99.99,,,0.00,Acu-Link.com,2013-07-10 20:47:00,
2013-07-10 17:03:00,78.8,78.2,29.74,SSW,202,1.7,-999.0,98,-99.99,,,0.00,Acu-Link.com,2013-07-10 21:03:00,
2013-07-10 17:18:00,78.4,77.8,29.75,NNW,337,0.0,-999.0,98,-99.99,,,0.00,Acu-Link.com,2013-07-10 21:18:00,
2013-07-10 17:33:00,77.7,77.1,29.73,NE,45,1.7,-999.0,98,-99.99,,,0.00,Acu-Link.com,2013-07-10 21:33:00,
2013-07-10 17:48:00,75.9,75.3,29.73,South,180,0.0,-999.0,98,-99.99,,,0.07,Acu-Link.com,2013-07-10 21:48:00,
2013-07-10 18:03:00,75.6,75.0,29.73,SSW,202,0.0,-999.0,98,-99.99,,,0.07,Acu-Link.com,2013-07-10 22:03:00,
2013-07-10 18:18:00,76.1,75.5,29.72,SSW,202,0.0,-999.0,98,-99.99,,,0.07,Acu-Link.com,2013-07-10 22:18:00,
2013-07-10 18:33:00,77.5,76.9,29.72,NNW,337,0.0,-999.0,98,-99.99,,,0.08,Acu-Link.com,2013-07-10 22:33:00,
2013-07-10 18:48:00,77.5,76.9,29.72,SSW,202,0.0,-999.0,98,-99.99,,,0.08,Acu-Link.com,2013-07-10 22:48:00,
2013-07-10 19:03:00,77.0,76.4,29.72,SW,225,0.0,-999.0,98,-99.99,,,0.08,Acu-Link.com,2013-07-10 23:03:00,
2013-07-10 19:19:00,77.0,76.4,29.74,SSW,202,0.0,-999.0,98,-99.99,,,0.08,Acu-Link.com,2013-07-10 23:19:00,
2013-07-10 19:34:00,76.6,76.0,29.73,SSW,202,0.0,-999.0,98,-99.99,,,0.08,Acu-Link.com,2013-07-10 23:34:00,
2013-07-10 19:49:00,76.5,75.9,29.74,SSW,202,0.0,-999.0,98,-99.99,,,0.08,Acu-Link.com,2013-07-10 23:49:00,
2013-07-10 20:04:00,76.1,75.5,29.75,SSW,202,0.0,-999.0,98,-99.99,,,0.08,Acu-Link.com,2013-07-11 00:04:00,
2013-07-10 20:19:00,75.7,75.1,29.75,SSW,202,0.0,-999.0,98,-99.99,,,0.08,Acu-Link.com,2013-07-11 00:19:00,
2013-07-10 20:34:00,75.6,75.0,29.74,West,270,0.0,-999.0,98,-99.99,,,0.08,Acu-Link.com,2013-07-11 00:34:00,
2013-07-10 20:49:00,75.4,74.8,29.74,South,180,0.0,-999.0,98,-99.99,,,0.08,Acu-Link.com,2013-07-11 00:49:00,
2013-07-10 21:04:00,75.2,74.6,29.75,SW,225,0.0,-999.0,98,-99.99,,,0.08,Acu-Link.com,2013-07-11 01:04:00,
2013-07-10 21:19:00,75.0,74.4,29.74,SW,225,0.0,-999.0,98,-99.99,,,0.08,Acu-Link.com,2013-07-11 01:19:00,
2013-07-10 21:34:00,75.0,74.4,29.75,SW,225,0.0,-999.0,98,-99.99,,,0.08,Acu-Link.com,2013-07-11 01:34:00,
2013-07-10 21:50:00,74.8,74.2,29.75,South,180,0.0,-999.0,98,-99.99,,,0.08,Acu-Link.com,2013-07-11 01:50:00,
2013-07-10 22:05:00,74.7,74.1,29.75,West,270,0.0,-999.0,98,-99.99,,,0.08,Acu-Link.com,2013-07-11 02:05:00,
2013-07-10 22:20:00,74.7,74.1,29.75,WNW,292,0.0,-999.0,98,-99.99,,,0.08,Acu-Link.com,2013-07-11 02:20:00,
2013-07-10 22:35:00,74.5,73.9,29.75,SSW,202,0.0,-999.0,98,-99.99,,,0.08,Acu-Link.com,2013-07-11 02:35:00,
2013-07-10 22:50:00,74.5,73.9,29.75,SSW,202,0.0,-999.0,98,-99.99,,,0.08,Acu-Link.com,2013-07-11 02:50:00,
2013-07-10 23:05:00,74.3,73.7,29.75,SSW,202,0.0,-999.0,98,-99.99,,,0.08,Acu-Link.com,2013-07-11 03:05:00,
2013-07-10 23:20:00,74.1,73.5,29.75,SSW,202,0.0,-999.0,98,-99.99,,,0.08,Acu-Link.com,2013-07-11 03:20:00,
2013-07-10 23:35:00,73.9,73.3,29.75,South,180,0.0,-999.0,98,-99.99,,,0.08,Acu-Link.com,2013-07-11 03:35:00,
2013-07-10 23:50:00,73.9,73.3,29.74,South,180,0.0,-999.0,98,-99.99,,,0.08,Acu-Link.com,2013-07-11 03:50:00,